createdAt,value
2023-01-17T00:01:19.813Z,1.00
2023-01-17T00:04:05.544Z,1.30
2023-01-17T00:07:03.658Z,1.70
2023-01-17T00:09:49.515Z,1.30
2023-01-17T00:12:24.867Z,1.30
2023-01-17T00:14:56.526Z,1.53
2023-01-17T00:17:32.732Z,1.60
2023-01-17T00:20:20.160Z,2.17
2023-01-17T00:23:12.873Z,2.60
2023-01-17T00:25:58.971Z,2.13
2023-01-17T00:28:33.738Z,2.40
2023-01-17T00:31:03.121Z,2.10
2023-01-17T00:33:36.746Z,2.30
2023-01-17T00:36:05.176Z,2.27
2023-01-17T00:38:40.760Z,2.30
2023-01-17T00:41:09.936Z,1.90
2023-01-17T00:44:01.740Z,2.37
2023-01-17T00:46:48.944Z,2.37
2023-01-17T00:49:40.742Z,2.30
2023-01-17T00:52:26.373Z,3.03
2023-01-17T00:55:18.733Z,2.70
2023-01-17T00:58:04.308Z,3.17
2023-01-17T01:00:57.054Z,3.40
2023-01-17T01:03:44.234Z,3.33
2023-01-17T01:06:36.758Z,3.40
2023-01-17T01:09:29.266Z,3.63
2023-01-17T01:12:20.832Z,3.70
2023-01-17T01:15:06.274Z,3.50
2023-01-17T01:17:58.969Z,3.50
2023-01-17T01:20:46.538Z,3.50
2023-01-17T01:23:38.772Z,3.63
2023-01-17T01:26:24.491Z,3.70
2023-01-17T01:29:16.776Z,3.60
2023-01-17T01:32:02.271Z,3.80
2023-01-17T01:34:37.994Z,3.70
2023-01-17T01:37:07.813Z,3.57
2023-01-17T01:39:42.942Z,3.57
2023-01-17T01:42:16.083Z,3.57
2023-01-17T01:44:54.899Z,3.40
2023-01-17T01:47:28.256Z,3.53
2023-01-17T01:50:03.784Z,3.60
2023-01-17T01:52:35.912Z,3.13
2023-01-17T01:55:15.995Z,3.00
2023-01-17T01:57:48.284Z,3.50
2023-01-17T02:00:26.792Z,3.30
2023-01-17T02:03:04.226Z,3.30
2023-01-17T02:05:46.847Z,2.80
2023-01-17T02:08:19.203Z,3.00
2023-01-17T02:10:54.871Z,3.37
2023-01-17T02:13:23.515Z,3.07
2023-01-17T02:16:06.033Z,3.53
2023-01-17T02:18:49.032Z,2.73
2023-01-17T02:21:31.015Z,3.13
2023-01-17T02:24:42.832Z,3.37
2023-01-17T02:27:22.537Z,2.93
2023-01-17T02:30:27.857Z,3.50
2023-01-17T02:33:16.807Z,3.60
2023-01-17T02:35:59.822Z,3.60
2023-01-17T02:38:38.246Z,3.03
2023-01-17T02:41:16.838Z,3.30
2023-01-17T02:43:51.852Z,3.57
2023-01-17T02:46:20.379Z,3.20
2023-01-17T02:48:56.937Z,3.70
2023-01-17T02:51:45.045Z,3.90
2023-01-17T02:54:49.970Z,4.47
2023-01-17T02:57:58.159Z,3.70
2023-01-17T03:00:33.260Z,4.30
2023-01-17T03:03:25.191Z,4.10
2023-01-17T03:06:02.240Z,5.00
2023-01-17T03:08:38.866Z,3.80
2023-01-17T03:11:09.868Z,3.90
2023-01-17T03:13:44.921Z,4.50
2023-01-17T03:16:17.406Z,4.80
2023-01-17T03:19:07.059Z,4.40
2023-01-17T03:21:44.537Z,4.67
2023-01-17T03:24:19.862Z,4.60
2023-01-17T03:26:48.848Z,5.50
2023-01-17T03:29:24.047Z,5.23
2023-01-17T03:31:52.452Z,5.70
2023-01-17T03:34:27.095Z,5.30
2023-01-17T03:36:57.395Z,5.77
2023-01-17T03:39:32.578Z,6.20
2023-01-17T03:42:00.930Z,5.70
2023-01-17T03:44:36.075Z,5.80
2023-01-17T03:47:05.116Z,5.53
2023-01-17T03:49:41.293Z,6.27
2023-01-17T03:52:11.105Z,6.00
2023-01-17T03:54:46.086Z,6.30
2023-01-17T03:57:14.550Z,6.23
2023-01-17T03:59:50.069Z,6.10
2023-01-17T04:02:38.312Z,6.63
2023-01-17T04:05:13.914Z,6.63
2023-01-17T04:07:43.910Z,7.23
2023-01-17T04:10:19.173Z,6.33
2023-01-17T04:12:47.572Z,6.77
2023-01-17T04:15:22.919Z,6.60
2023-01-17T04:17:51.341Z,7.20
2023-01-17T04:20:40.174Z,7.33
2023-01-17T04:23:10.371Z,6.93
2023-01-17T04:25:46.322Z,6.93
2023-01-17T04:28:14.874Z,6.47
2023-01-17T04:30:50.131Z,6.50
2023-01-17T04:33:18.584Z,6.93
2023-01-17T04:35:53.975Z,6.80
2023-01-17T04:38:24.752Z,6.50
2023-01-17T04:41:00.132Z,6.67
2023-01-17T04:43:28.604Z,6.93
2023-01-17T04:46:04.009Z,6.10
2023-01-17T04:48:33.383Z,6.80
2023-01-17T04:51:09.097Z,6.90
2023-01-17T04:53:39.228Z,6.93
2023-01-17T04:56:15.255Z,6.90
2023-01-17T04:58:43.959Z,7.07
2023-01-17T05:01:19.198Z,7.03
2023-01-17T05:04:00.519Z,6.50
2023-01-17T05:06:34.969Z,6.83
2023-01-17T05:09:04.742Z,7.33
2023-01-17T05:11:40.078Z,6.70
2023-01-17T05:14:08.618Z,7.30
2023-01-17T05:16:43.130Z,7.07
2023-01-17T05:19:11.904Z,7.57
2023-01-17T05:21:47.014Z,7.30
2023-01-17T05:24:16.870Z,7.03
2023-01-17T05:26:52.028Z,6.50
2023-01-17T05:29:20.825Z,6.97
2023-01-17T05:31:56.206Z,7.10
2023-01-17T05:34:24.788Z,7.03
2023-01-17T05:37:00.126Z,6.87
2023-01-17T05:39:31.162Z,6.70
2023-01-17T05:42:06.039Z,6.63
2023-01-17T05:44:34.732Z,7.27
2023-01-17T05:47:10.031Z,6.47
2023-01-17T05:49:39.156Z,6.47
2023-01-17T05:52:14.003Z,6.83
2023-01-17T05:54:44.159Z,6.73
2023-01-17T05:57:19.956Z,6.87
2023-01-17T05:59:48.160Z,6.70
2023-01-17T06:02:23.242Z,7.17
2023-01-17T06:05:05.214Z,6.80
2023-01-17T06:07:33.950Z,6.93
2023-01-17T06:10:10.177Z,7.10
2023-01-17T06:12:38.925Z,6.67
2023-01-17T06:15:15.183Z,6.40
2023-01-17T06:17:44.141Z,6.97
2023-01-17T06:20:21.057Z,6.67
2023-01-17T06:22:49.752Z,6.87
2023-01-17T06:25:26.087Z,6.80
2023-01-17T06:27:55.507Z,6.23
2023-01-17T06:30:31.198Z,6.33
2023-01-17T06:32:59.563Z,7.30
2023-01-17T06:35:34.019Z,7.10
2023-01-17T06:38:03.014Z,6.63
2023-01-17T06:40:40.070Z,6.80
2023-01-17T06:43:09.061Z,6.77
2023-01-17T06:45:45.215Z,6.67
2023-01-17T06:48:15.156Z,6.33
2023-01-17T06:50:55.118Z,6.47
2023-01-17T06:53:23.875Z,6.20
2023-01-17T06:56:03.055Z,6.20
2023-01-17T06:58:32.049Z,5.73
2023-01-17T07:01:13.140Z,6.20
2023-01-17T07:03:48.480Z,6.33
2023-01-17T07:06:23.233Z,6.03
2023-01-17T07:08:52.249Z,5.93
2023-01-17T07:11:29.099Z,6.50
2023-01-17T07:13:57.433Z,6.37
2023-01-17T07:16:32.133Z,6.70
2023-01-17T07:19:01.117Z,7.37
2023-01-17T07:21:36.105Z,6.60
2023-01-17T07:24:04.569Z,6.97
2023-01-17T07:26:41.232Z,6.60
2023-01-17T07:29:09.921Z,7.10
2023-01-17T07:31:47.236Z,6.43
2023-01-17T07:34:15.693Z,6.33
2023-01-17T07:36:51.170Z,6.73
2023-01-17T07:39:19.598Z,6.47
2023-01-17T07:41:57.418Z,6.97
2023-01-17T07:44:25.891Z,7.13
2023-01-17T07:47:02.060Z,7.77
2023-01-17T07:49:30.580Z,8.33
2023-01-17T07:52:06.149Z,8.20
2023-01-17T07:54:34.707Z,8.23
2023-01-17T07:57:12.282Z,7.80
2023-01-17T07:59:41.225Z,7.30
2023-01-17T08:02:24.181Z,7.60
2023-01-17T08:04:59.595Z,8.00
2023-01-17T08:07:36.085Z,7.50
2023-01-17T08:10:06.816Z,7.43
2023-01-17T08:12:45.259Z,8.23
2023-01-17T08:15:14.234Z,8.20
2023-01-17T08:17:54.079Z,7.43
2023-01-17T08:20:25.030Z,8.07
2023-01-17T08:23:03.083Z,7.37
2023-01-17T08:25:33.151Z,8.17
2023-01-17T08:28:10.169Z,7.53
2023-01-17T08:30:38.834Z,8.30
2023-01-17T08:33:14.290Z,7.83
2023-01-17T08:35:52.169Z,8.20
2023-01-17T08:38:27.297Z,7.73
2023-01-17T08:40:56.199Z,7.80
2023-01-17T08:43:33.328Z,7.97
2023-01-17T08:46:04.030Z,7.60
2023-01-17T08:48:40.609Z,8.70
2023-01-17T08:51:09.774Z,8.83
2023-01-17T08:53:45.220Z,8.97
2023-01-17T08:56:13.787Z,9.03
2023-01-17T08:58:50.196Z,8.97
2023-01-17T09:01:18.672Z,9.37
2023-01-17T09:03:56.248Z,10.50
2023-01-17T09:06:31.483Z,9.63
2023-01-17T09:09:06.235Z,9.67
2023-01-17T09:11:35.498Z,10.20
2023-01-17T09:14:12.212Z,10.10
2023-01-17T09:16:40.825Z,10.03
2023-01-17T09:19:17.365Z,9.30
2023-01-17T09:21:46.435Z,9.90
2023-01-17T09:24:21.355Z,10.70
2023-01-17T09:26:50.403Z,9.70
2023-01-17T09:29:27.178Z,9.27
2023-01-17T09:31:55.799Z,9.77
2023-01-17T09:34:31.501Z,9.17
2023-01-17T09:37:00.111Z,8.77
2023-01-17T09:39:35.432Z,8.87
2023-01-17T09:42:13.416Z,8.70
2023-01-17T09:44:54.511Z,9.17
2023-01-17T09:47:42.774Z,8.90
2023-01-17T09:50:26.616Z,9.73
2023-01-17T09:53:08.271Z,9.43
2023-01-17T09:55:43.115Z,9.27
2023-01-17T09:58:21.239Z,9.23
2023-01-17T10:01:03.801Z,9.67
2023-01-17T10:03:54.284Z,9.67
2023-01-17T10:06:50.418Z,9.50
2023-01-17T10:10:00.261Z,9.60
2023-01-17T10:12:41.216Z,9.47
2023-01-17T10:15:42.252Z,9.50
2023-01-17T10:18:43.147Z,9.37
2023-01-17T10:21:22.397Z,9.50
2023-01-17T10:24:18.088Z,9.13
2023-01-17T10:26:56.300Z,9.00
2023-01-17T10:29:28.759Z,8.83
2023-01-17T10:32:07.313Z,9.20
2023-01-17T10:34:45.072Z,9.47
2023-01-17T10:37:28.201Z,9.00
2023-01-17T10:39:59.501Z,9.13
2023-01-17T10:42:49.730Z,9.30
2023-01-17T10:45:25.761Z,9.53
2023-01-17T10:48:11.186Z,8.70
2023-01-17T10:50:57.253Z,8.40
2023-01-17T10:53:44.211Z,8.30
2023-01-17T10:56:22.425Z,9.53
2023-01-17T10:59:02.400Z,7.90
2023-01-17T11:01:31.499Z,9.17
2023-01-17T11:04:06.433Z,8.37
2023-01-17T11:06:57.817Z,6.77
2023-01-17T11:09:46.214Z,7.80
2023-01-17T11:12:25.219Z,7.63
2023-01-17T11:15:15.577Z,7.83
2023-01-17T11:17:50.030Z,7.97
2023-01-17T11:20:30.327Z,6.73
2023-01-17T11:23:09.025Z,9.10
2023-01-17T11:25:45.440Z,9.60
2023-01-17T11:28:29.120Z,9.23
2023-01-17T11:31:05.508Z,7.63
2023-01-17T11:33:54.021Z,7.23
2023-01-17T11:36:31.478Z,7.07
2023-01-17T11:39:32.468Z,6.30
2023-01-17T11:42:00.918Z,6.93
2023-01-17T11:44:37.359Z,6.30
2023-01-17T11:47:20.110Z,5.20
2023-01-17T11:49:57.339Z,5.07
2023-01-17T11:52:33.352Z,4.90
2023-01-17T11:55:09.516Z,4.50
2023-01-17T11:57:46.069Z,4.57
2023-01-17T12:00:28.524Z,4.70
2023-01-17T12:03:32.804Z,4.50
2023-01-17T12:06:44.772Z,5.20
2023-01-17T12:09:26.571Z,5.40
2023-01-17T12:12:28.371Z,5.23
2023-01-17T12:15:19.993Z,5.17
2023-01-17T12:18:17.477Z,3.90
2023-01-17T12:20:53.225Z,3.10
2023-01-17T12:23:55.501Z,3.93
2023-01-17T12:26:43.489Z,4.03
2023-01-17T12:29:55.223Z,2.90
2023-01-17T12:33:00.369Z,2.93
2023-01-17T12:35:38.666Z,2.67
2023-01-17T12:38:31.745Z,6.60
2023-01-17T12:41:07.398Z,3.37
2023-01-17T12:43:49.397Z,2.07
2023-01-17T12:46:27.253Z,1.97
2023-01-17T12:49:13.536Z,3.10
2023-01-17T12:51:50.193Z,3.07
2023-01-17T12:54:32.533Z,3.37
2023-01-17T12:57:05.331Z,3.40
2023-01-17T12:59:47.741Z,3.80
2023-01-17T13:02:29.153Z,2.93
2023-01-17T13:05:22.327Z,3.33
2023-01-17T13:08:13.941Z,2.33
2023-01-17T13:10:54.545Z,2.40
2023-01-17T13:13:25.955Z,3.20
2023-01-17T13:16:09.157Z,2.43
2023-01-17T13:18:52.170Z,2.10
2023-01-17T13:21:38.409Z,2.00
2023-01-17T13:24:37.854Z,2.30
2023-01-17T13:27:34.401Z,2.20
2023-01-17T13:30:24.050Z,1.70
2023-01-17T13:33:25.293Z,1.90
2023-01-17T13:36:06.437Z,2.00
2023-01-17T13:39:01.401Z,2.00
2023-01-17T13:41:43.864Z,1.43
2023-01-17T13:44:32.465Z,1.80
2023-01-17T13:47:04.576Z,1.70
2023-01-17T13:49:51.573Z,1.63
2023-01-17T13:52:36.144Z,1.63
2023-01-17T13:55:13.438Z,1.73
2023-01-17T13:57:43.834Z,1.90
2023-01-17T14:00:57.810Z,1.83
2023-01-17T14:04:19.404Z,1.70
2023-01-17T14:07:03.967Z,2.77
2023-01-17T14:09:50.639Z,2.30
2023-01-17T14:12:37.204Z,2.30
2023-01-17T14:15:27.626Z,1.90
2023-01-17T14:17:59.384Z,1.67
2023-01-17T14:21:16.632Z,1.73
2023-01-17T14:24:13.308Z,1.97
2023-01-17T14:27:05.472Z,1.70
2023-01-17T14:29:49.806Z,2.93
2023-01-17T14:32:27.535Z,2.63
2023-01-17T14:34:57.383Z,2.30
2023-01-17T14:37:53.591Z,2.60
2023-01-17T14:40:26.266Z,2.30
2023-01-17T14:43:08.435Z,2.00
2023-01-17T14:45:38.107Z,2.27
2023-01-17T14:48:15.672Z,2.50
2023-01-17T14:50:45.619Z,2.20
2023-01-17T14:53:26.792Z,2.23
2023-01-17T14:56:01.560Z,2.00
2023-01-17T14:58:39.456Z,1.90
2023-01-17T15:01:13.440Z,1.97
2023-01-17T15:04:03.650Z,2.50
2023-01-17T15:06:40.489Z,1.70
2023-01-17T15:09:20.496Z,1.80
2023-01-17T15:11:52.348Z,2.00
2023-01-17T15:14:31.569Z,1.60
2023-01-17T15:17:10.983Z,1.90
2023-01-17T15:19:50.662Z,2.00
2023-01-17T15:22:20.522Z,2.00
2023-01-17T15:24:57.733Z,2.33
2023-01-17T15:27:26.894Z,1.97
2023-01-17T15:30:08.515Z,2.10
2023-01-17T15:32:38.030Z,2.13
2023-01-17T15:35:14.481Z,2.07
2023-01-17T15:37:43.591Z,1.97
2023-01-17T15:40:26.617Z,1.93
2023-01-17T15:42:57.916Z,1.80
2023-01-17T15:45:36.589Z,1.80
2023-01-17T15:48:33.685Z,1.60
2023-01-17T15:51:09.597Z,2.00
2023-01-17T15:53:39.884Z,2.03
2023-01-17T15:56:41.634Z,2.07
2023-01-17T15:59:32.980Z,1.90
2023-01-17T16:02:09.777Z,2.30
2023-01-17T16:04:45.121Z,2.43
2023-01-17T16:07:27.672Z,2.40
2023-01-17T16:10:06.831Z,2.73
2023-01-17T16:12:41.588Z,2.17
2023-01-17T16:15:13.245Z,2.23
2023-01-17T16:17:55.877Z,2.47
2023-01-17T16:20:27.778Z,2.37
2023-01-17T16:23:02.584Z,2.03
2023-01-17T16:25:33.052Z,2.33
2023-01-17T16:28:10.748Z,5.07
2023-01-17T16:30:40.201Z,5.40
2023-01-17T16:33:19.521Z,6.23
2023-01-17T16:35:48.169Z,12.80
2023-01-17T16:38:24.752Z,8.00
2023-01-17T16:40:53.200Z,6.30
2023-01-17T16:43:28.733Z,4.90
2023-01-17T16:45:57.497Z,4.47
2023-01-17T16:48:34.541Z,4.23
2023-01-17T16:51:07.018Z,5.30
2023-01-17T16:53:43.614Z,4.40
2023-01-17T16:56:14.619Z,4.40
2023-01-17T16:58:50.866Z,3.97
2023-01-17T17:01:21.287Z,4.10
2023-01-17T17:03:57.549Z,4.10
2023-01-17T17:06:33.051Z,3.83
2023-01-17T17:09:07.655Z,3.53
2023-01-17T17:11:35.935Z,3.60
2023-01-17T17:14:11.724Z,3.33
2023-01-17T17:16:40.133Z,3.50
2023-01-17T17:19:16.587Z,3.40
2023-01-17T17:21:45.410Z,3.13
2023-01-17T17:24:21.633Z,3.00
2023-01-17T17:26:50.587Z,3.00
2023-01-17T17:29:25.748Z,3.40
2023-01-17T17:31:54.951Z,3.20
2023-01-17T17:34:34.772Z,4.20
2023-01-17T17:37:03.987Z,3.83
2023-01-17T17:39:39.725Z,3.67
2023-01-17T17:42:08.328Z,4.27
2023-01-17T17:44:43.785Z,5.93
2023-01-17T17:47:13.534Z,9.90
2023-01-17T17:49:50.832Z,8.90
2023-01-17T17:52:19.238Z,9.10
2023-01-17T17:54:55.783Z,10.77
2023-01-17T17:57:24.458Z,11.00
2023-01-17T18:00:02.558Z,8.77
2023-01-17T18:02:37.643Z,9.07
2023-01-17T18:05:27.913Z,8.13
2023-01-17T18:08:02.794Z,8.77
2023-01-17T18:10:31.386Z,9.03
2023-01-17T18:13:06.673Z,8.50
2023-01-17T18:15:35.296Z,7.80
2023-01-17T18:18:10.688Z,7.30
2023-01-17T18:20:40.625Z,7.77
2023-01-17T18:23:18.837Z,8.57
2023-01-17T18:25:47.246Z,7.53
2023-01-17T18:28:22.796Z,8.10
2023-01-17T18:30:51.674Z,8.43
2023-01-17T18:33:26.737Z,7.27
2023-01-17T18:35:58.800Z,6.07
2023-01-17T18:38:44.820Z,6.43
2023-01-17T18:41:14.993Z,6.70
2023-01-17T18:43:50.665Z,6.80
2023-01-17T18:46:20.996Z,7.80
2023-01-17T18:48:56.729Z,10.80
2023-01-17T18:51:27.582Z,17.67
2023-01-17T18:54:02.887Z,12.37
2023-01-17T18:56:34.375Z,12.00
2023-01-17T18:59:12.845Z,12.53
2023-01-17T19:01:43.978Z,21.60
2023-01-17T19:04:20.847Z,29.40
2023-01-17T19:06:57.706Z,19.07
2023-01-17T19:09:32.854Z,20.50
2023-01-17T19:12:01.499Z,22.30
2023-01-17T19:14:36.861Z,18.17
2023-01-17T19:17:05.549Z,13.07
2023-01-17T19:19:40.674Z,11.27
2023-01-17T19:22:11.812Z,12.97
2023-01-17T19:24:47.855Z,15.77
2023-01-17T19:27:19.094Z,13.17
2023-01-17T19:29:53.881Z,12.93
2023-01-17T19:32:22.438Z,11.13
2023-01-17T19:34:57.715Z,9.20
2023-01-17T19:37:28.130Z,9.20
2023-01-17T19:40:03.983Z,9.73
2023-01-17T19:42:32.937Z,16.70
2023-01-17T19:45:07.883Z,24.97
2023-01-17T19:47:36.533Z,22.27
2023-01-17T19:50:15.010Z,19.83
2023-01-17T19:52:45.242Z,19.80
2023-01-17T19:55:20.711Z,22.30
2023-01-17T19:57:51.200Z,19.87
2023-01-17T20:00:30.373Z,19.57
2023-01-17T20:02:59.322Z,15.43
2023-01-17T20:05:34.770Z,16.73
2023-01-17T20:08:11.095Z,14.50
2023-01-17T20:10:49.005Z,12.70
2023-01-17T20:13:17.618Z,12.83
2023-01-17T20:15:53.804Z,11.43
2023-01-17T20:18:22.677Z,12.23
2023-01-17T20:20:57.892Z,11.27
2023-01-17T20:23:28.211Z,14.07
2023-01-17T20:26:05.761Z,12.60
2023-01-17T20:28:36.019Z,12.97
2023-01-17T20:31:15.813Z,12.57
2023-01-17T20:33:46.036Z,8.40
2023-01-17T20:36:23.050Z,8.60
2023-01-17T20:38:54.726Z,9.70
2023-01-17T20:41:31.909Z,9.50
2023-01-17T20:44:02.826Z,9.67
2023-01-17T20:46:41.826Z,10.97
2023-01-17T20:49:21.994Z,10.23
2023-01-17T20:51:50.506Z,10.33
2023-01-17T20:54:27.908Z,13.07
2023-01-17T20:56:56.437Z,11.87
2023-01-17T20:59:31.813Z,11.90
2023-01-17T21:02:00.430Z,10.27
2023-01-17T21:04:42.924Z,10.47
2023-01-17T21:07:18.326Z,10.40
2023-01-17T21:09:54.778Z,9.10
2023-01-17T21:12:23.315Z,9.30
2023-01-17T21:15:00.910Z,11.37
2023-01-17T21:17:29.738Z,11.07
2023-01-17T21:20:04.824Z,10.13
2023-01-17T21:22:33.763Z,17.00
2023-01-17T21:25:09.839Z,14.83
2023-01-17T21:27:38.067Z,10.17
2023-01-17T21:30:13.867Z,10.30
2023-01-17T21:32:42.632Z,9.83
2023-01-17T21:35:17.973Z,10.23
2023-01-17T21:37:50.531Z,10.47
2023-01-17T21:40:26.988Z,10.87
2023-01-17T21:42:55.389Z,9.73
2023-01-17T21:45:32.857Z,9.63
2023-01-17T21:48:01.690Z,9.10
2023-01-17T21:50:36.889Z,9.70
2023-01-17T21:53:05.936Z,9.03
2023-01-17T21:56:00.509Z,9.07
2023-01-17T21:58:47.148Z,9.17
2023-01-17T22:01:25.110Z,8.90
2023-01-17T22:03:55.826Z,8.77
2023-01-17T22:06:39.003Z,8.73
2023-01-17T22:09:07.663Z,8.57
2023-01-17T22:11:44.845Z,8.77
2023-01-17T22:14:13.541Z,8.77
2023-01-17T22:16:48.860Z,8.33
2023-01-17T22:19:17.544Z,8.30
2023-01-17T22:21:53.011Z,8.80
2023-01-17T22:24:22.288Z,9.10
2023-01-17T22:26:59.149Z,8.50
2023-01-17T22:29:27.737Z,8.17
2023-01-17T22:32:03.007Z,8.13
2023-01-17T22:34:31.840Z,7.37
2023-01-17T22:37:07.010Z,7.70
2023-01-17T22:39:35.514Z,8.10
2023-01-17T22:42:12.907Z,6.83
2023-01-17T22:44:41.690Z,7.00
2023-01-17T22:47:16.927Z,7.10
2023-01-17T22:49:45.798Z,6.60
2023-01-17T22:52:20.889Z,7.30
2023-01-17T22:54:49.865Z,6.10
2023-01-17T22:57:27.531Z,6.40
2023-01-17T22:59:56.923Z,6.13
2023-01-17T23:02:31.922Z,6.77
2023-01-17T23:05:07.578Z,6.10
2023-01-17T23:07:52.910Z,7.10
2023-01-17T23:10:35.703Z,6.47
2023-01-17T23:13:16.071Z,7.90
2023-01-17T23:16:02.110Z,7.00
2023-01-17T23:18:55.199Z,6.87
2023-01-17T23:21:43.821Z,6.03
2023-01-17T23:24:18.925Z,6.13
2023-01-17T23:27:07.754Z,5.97
2023-01-17T23:29:43.050Z,5.87
2023-01-17T23:32:11.613Z,6.20
2023-01-17T23:34:46.048Z,5.80
2023-01-17T23:37:14.577Z,5.23
2023-01-17T23:39:49.956Z,6.27
2023-01-17T23:42:35.665Z,6.13
2023-01-17T23:45:12.906Z,4.87
2023-01-17T23:47:43.953Z,4.30
2023-01-17T23:50:19.165Z,3.90
2023-01-17T23:52:47.931Z,3.30
2023-01-17T23:55:23.192Z,3.37
2023-01-17T23:57:53.086Z,3.30
